Weather at St Rose de Lima Dominican Hospital Heliport

Public forecast

Using degrees Fahrenheit for public forecast. Weather courtesy of forecast.io.

Closest aviation weather report (METAR) to St Rose de Lima Dominican Hospital Heliport

Closest report is Henderson Executive Airport, 8.2 nm (15.3 km) WSW. Retrieved 2022/01/27 07:56 UTC (40 minutes ago):

KHND 270756Z AUTO 19007KT 10SM CLR 02/M09 A3023 RMK AO2 SLP263 T00221094 FZRANO

Closest aviation forecast (TAF) to St Rose de Lima Dominican Hospital Heliport

Closest forecast is Henderson Executive Airport, 8.2 nm (15.3 km) WSW. Retrieved 2022/01/27 06:24 UTC (2 hours ago):

TAF KHND 270520Z 2706/2806 17006KT P6SM SKC FM271800 03007KT P6SM SKC FM272100 02013G22KT P6SM SKC FM280400 01009KT P6SM SKC